Latitude: N 50° 09' 49" Longitude: W 05° 11' 53" Elevation: 168m ASL

There are 18 visitors online

Adverts
Latest METAR Data

Below are the latest METARs ("Meteorological Services to Airmen Reports"), for RNAS Culdrose and Newquay Airport.

EGDR - RNAS Culdrose
Distance from station: SW 6mi, 9km
Updated: Fri, 24-Nov-2017 2:50am GMT
Light drizzle, Mostly cloudy
Light drizzle, Mostly cloudy
 Wind from W
Wind: W 5 mph , 7 km/h
Temperature: 45°F , 7°C
Wind Chill: 42°F , 6°C
Dew Point: 41°F , 5°C
Humidity: 87%
Barometer: 29.77 inHg , 1008 hPa
Summary: Light Drizzle
Clouds: Mostly Cloudy
Visibility: 6 miles , 10 km
Cloud details: Few Clouds 2000 ft
Mostly Cloudy 4000 ft
2017/11/24 02:50 EGDR 240250Z 26004KT 9999 -DZ FEW020 BKN040 07/05 Q1008 BLU
EGHQ - Newquay Airport
Distance from station: NE 21mi, 34km
Updated: Thu, 23-Nov-2017 8:50pm GMT
NOT Current
Nearby showers, Partly cloudy
Nearby showers, Partly cloudy
 Wind from SW
Wind: SW 10 mph , 17 km/h
Temperature: 46°F , 8°C
Wind Chill: 41°F , 5°C
Dew Point: 36°F , 2°C
Humidity: 66%
Barometer: 29.71 inHg , 1006 hPa
Summary: Nearby Showers
Clouds: Partly Cloudy
Visibility: 6 miles , 10 km
Cloud details: Partly Cloudy 4500 ft
2017/11/23 20:50 EGHQ 232050Z 23009KT 9999 VCSH SCT045 08/02 Q1006
 
EGTE - Exeter Airport
Distance from station: ENE 88mi, 141km
Updated: Fri, 24-Nov-2017 1:50am GMT
NOT Current
Partly Cloudy
Partly Cloudy
 Wind from varies
Wind: varies 1 mph , 2 km/h
Temperature: 41°F , 5°C
Dew Point: 39°F , 4°C
Humidity: 93%
Barometer: 29.74 inHg , 1007 hPa
Clouds: Partly Cloudy
Visibility: 6 miles , 10 km
Cloud details: Partly Cloudy 3500 ft
2017/11/24 01:50 EGTE 240150Z VRB01KT 9999 SCT035 05/04 Q1007
EGHE - St Marys, IOS
Distance from station: W 51mi, 82km
Updated: Thu, 23-Nov-2017 4:50pm GMT
NOT Current
Few Clouds
Few Clouds
 Wind from WSW
Wind: WSW 15 mph , 24 km/h
Temperature: 52°F , 11°C
Dew Point: 37°F , 3°C
Humidity: 58%
Barometer: 29.68 inHg , 1005 hPa
Clouds: Few Clouds
Visibility: 6 miles , 10 km
Cloud details: Few Clouds 2400 ft
2017/11/23 16:50 EGHE 231650Z 25013KT 9999 FEW024 11/03 Q1005

Metar display script from Saratoga-Weather.org

UK - WEATHER STATION TOPSITES - UK World Weather Websites

This is a private weather station, never base important decisions or events on data from this weather station. Although every effort has been made to make the data as accurate as possible it does not meet MetOffice standards. It is proved as a guide of local weather conditions. We accept no liability for any loss which may arise from use of the data.

Copyright © Carnkie Weather 2009 - 2017.